createdAt,value
2018-09-30T00:00:16.578Z,2.20
2018-09-30T00:02:44.681Z,3.98
2018-09-30T00:05:12.810Z,5.65
2018-09-30T00:07:40.913Z,4.87
2018-09-30T00:10:09.056Z,9.90
2018-09-30T00:12:37.171Z,3.50
2018-09-30T00:15:05.303Z,3.30
2018-09-30T00:17:33.407Z,5.80
2018-09-30T00:20:01.514Z,3.45
2018-09-30T00:22:29.628Z,3.72
2018-09-30T00:25:03.206Z,4.25
2018-09-30T00:27:31.332Z,7.08
2018-09-30T00:29:59.445Z,8.08
2018-09-30T00:32:27.547Z,9.30
2018-09-30T00:34:55.657Z,2.70
2018-09-30T00:37:23.790Z,3.12
2018-09-30T00:39:51.910Z,5.15
2018-09-30T00:42:20.008Z,2.55
2018-09-30T00:44:48.111Z,4.78
2018-09-30T00:47:16.212Z,7.15
2018-09-30T00:49:44.321Z,3.55
2018-09-30T00:54:56.040Z,6.33
2018-09-30T00:57:24.131Z,3.02
2018-09-30T00:59:52.259Z,3.60
2018-09-30T01:02:20.339Z,3.58
2018-09-30T01:04:48.458Z,2.77
2018-09-30T01:07:16.556Z,5.70
2018-09-30T01:09:44.759Z,5.03
2018-09-30T01:14:47.232Z,5.58
2018-09-30T01:17:15.317Z,3.42
2018-09-30T01:19:43.405Z,4.28
2018-09-30T01:22:11.495Z,11.35
2018-09-30T01:24:39.571Z,5.87
2018-09-30T01:27:07.662Z,2.10
2018-09-30T01:29:35.758Z,5.12
2018-09-30T01:32:03.851Z,4.05
2018-09-30T01:34:31.955Z,5.55
2018-09-30T01:37:00.033Z,2.60
2018-09-30T01:39:28.130Z,4.25
2018-09-30T01:41:56.203Z,2.90
2018-09-30T01:44:24.289Z,2.22
2018-09-30T01:46:52.380Z,3.37
2018-09-30T01:49:20.492Z,3.52
2018-09-30T01:51:58.809Z,4.00
2018-09-30T01:54:26.911Z,3.47
2018-09-30T01:56:55.025Z,3.83
2018-09-30T01:59:23.124Z,6.00
2018-09-30T02:01:51.203Z,5.83
2018-09-30T02:04:19.333Z,4.25
2018-09-30T02:06:47.423Z,4.25
2018-09-30T02:09:15.516Z,3.77
2018-09-30T02:11:44.139Z,7.17
2018-09-30T02:14:12.302Z,3.77
2018-09-30T02:16:40.395Z,6.05
2018-09-30T02:19:08.496Z,5.12
2018-09-30T02:21:36.598Z,5.70
2018-09-30T02:24:04.733Z,5.20
2018-09-30T02:26:32.855Z,2.47
2018-09-30T02:29:00.961Z,5.35
2018-09-30T02:31:29.068Z,4.08
2018-09-30T02:33:57.183Z,5.92
2018-09-30T02:36:25.281Z,5.72
2018-09-30T02:38:53.409Z,5.80
2018-09-30T02:41:21.500Z,2.98
2018-09-30T02:43:49.618Z,3.83
2018-09-30T02:46:17.704Z,5.45
2018-09-30T02:48:45.823Z,6.17
2018-09-30T02:51:13.903Z,6.45
2018-09-30T02:53:42.024Z,5.78
2018-09-30T02:56:10.140Z,5.20
2018-09-30T02:58:38.270Z,5.22
2018-09-30T03:01:06.385Z,6.65
2018-09-30T03:03:34.507Z,3.05
2018-09-30T03:06:02.608Z,4.20
2018-09-30T03:09:37.644Z,5.85
2018-09-30T03:12:05.758Z,4.47
2018-09-30T03:14:33.859Z,3.08
2018-09-30T03:17:01.971Z,4.25
2018-09-30T03:19:30.074Z,3.87
2018-09-30T03:21:58.171Z,3.27
2018-09-30T03:24:26.272Z,4.90
2018-09-30T03:26:54.365Z,4.25
2018-09-30T03:29:22.475Z,3.35
2018-09-30T03:31:50.564Z,2.92
2018-09-30T03:34:18.678Z,7.67
2018-09-30T03:36:46.759Z,5.53
2018-09-30T03:39:14.873Z,3.75
2018-09-30T03:41:42.960Z,5.40
2018-09-30T03:44:11.058Z,4.30
2018-09-30T03:46:39.363Z,5.00
2018-09-30T03:49:07.725Z,4.03
2018-09-30T03:51:36.134Z,2.52
2018-09-30T03:54:04.228Z,7.60
2018-09-30T03:56:32.303Z,8.30
2018-09-30T03:59:00.380Z,7.17
2018-09-30T04:01:28.467Z,7.62
2018-09-30T04:03:56.566Z,5.58
2018-09-30T04:06:24.665Z,5.05
2018-09-30T04:08:53.242Z,1.82
2018-09-30T04:11:21.328Z,3.15
2018-09-30T04:13:49.447Z,5.70
2018-09-30T04:16:17.565Z,4.92
2018-09-30T04:18:45.717Z,4.20
2018-09-30T04:21:13.833Z,6.90
2018-09-30T04:23:41.938Z,4.72
2018-09-30T04:26:10.037Z,5.17
2018-09-30T04:28:38.136Z,3.83
2018-09-30T04:31:06.360Z,2.55
2018-09-30T04:33:34.520Z,6.20
2018-09-30T04:36:02.625Z,5.75
2018-09-30T04:38:30.737Z,3.42
2018-09-30T04:40:58.877Z,4.65
2018-09-30T04:43:26.983Z,2.60
2018-09-30T04:45:55.104Z,6.95
2018-09-30T04:48:23.214Z,6.80
2018-09-30T04:50:51.322Z,3.60
2018-09-30T04:53:19.424Z,4.65
2018-09-30T04:55:47.553Z,3.35
2018-09-30T04:58:15.643Z,7.55
2018-09-30T05:00:43.754Z,6.10
2018-09-30T05:03:11.851Z,4.83
2018-09-30T05:05:40.017Z,6.87
2018-09-30T05:08:08.086Z,4.12
2018-09-30T05:10:36.215Z,5.40
2018-09-30T05:13:04.318Z,6.35
2018-09-30T05:15:32.394Z,4.47
2018-09-30T05:18:00.493Z,4.05
2018-09-30T05:20:28.606Z,4.22
2018-09-30T05:22:56.697Z,2.83
2018-09-30T05:25:24.777Z,4.53
2018-09-30T05:27:52.874Z,4.08
2018-09-30T05:30:20.986Z,4.10
2018-09-30T05:32:49.079Z,2.67
2018-09-30T05:35:17.176Z,4.08
2018-09-30T05:37:45.255Z,7.53
2018-09-30T05:40:13.328Z,4.42
2018-09-30T05:42:41.492Z,5.65
2018-09-30T05:45:09.562Z,3.10
2018-09-30T05:47:37.750Z,5.78
2018-09-30T05:50:05.991Z,3.80
2018-09-30T05:52:34.095Z,2.65
2018-09-30T05:55:02.770Z,6.15
2018-09-30T05:57:30.867Z,3.42
2018-09-30T05:59:58.969Z,4.03
2018-09-30T06:02:27.057Z,3.52
2018-09-30T06:04:55.129Z,7.72
2018-09-30T06:07:23.238Z,3.85
2018-09-30T06:09:51.341Z,6.08
2018-09-30T06:12:19.446Z,3.37
2018-09-30T06:14:47.511Z,5.45
2018-09-30T06:17:15.622Z,5.03
2018-09-30T06:19:43.722Z,5.90
2018-09-30T06:22:11.808Z,3.05
2018-09-30T06:24:39.895Z,3.67
2018-09-30T06:27:07.998Z,3.90
2018-09-30T06:29:36.084Z,8.35
2018-09-30T06:32:04.200Z,7.47
2018-09-30T06:34:32.279Z,4.60
2018-09-30T06:37:00.372Z,6.10
2018-09-30T06:39:28.466Z,5.30
2018-09-30T06:41:56.572Z,5.40
2018-09-30T06:44:24.647Z,4.75
2018-09-30T06:46:52.745Z,6.83
2018-09-30T06:49:20.836Z,4.25
2018-09-30T06:51:48.935Z,5.42
2018-09-30T06:54:17.060Z,5.12
2018-09-30T06:56:45.179Z,11.12
2018-09-30T06:59:13.281Z,3.40
2018-09-30T07:01:41.398Z,2.70
2018-09-30T07:04:09.494Z,6.45
2018-09-30T07:06:37.591Z,3.45
2018-09-30T07:09:07.326Z,6.90
2018-09-30T07:11:35.664Z,5.45
2018-09-30T07:14:03.766Z,10.50
2018-09-30T07:16:32.034Z,4.78
2018-09-30T07:19:00.129Z,5.35
2018-09-30T07:21:28.212Z,4.28
2018-09-30T07:23:56.312Z,3.00
2018-09-30T07:26:24.405Z,6.12
2018-09-30T07:28:52.515Z,3.65
2018-09-30T07:31:20.614Z,4.75
2018-09-30T07:33:48.784Z,2.77
2018-09-30T07:36:16.830Z,4.75
2018-09-30T07:38:44.943Z,5.30
2018-09-30T07:41:13.048Z,3.80
2018-09-30T07:43:41.227Z,5.15
2018-09-30T07:46:09.348Z,5.37
2018-09-30T07:48:37.468Z,4.40
2018-09-30T07:51:05.556Z,2.60
2018-09-30T07:53:33.648Z,5.27
2018-09-30T07:56:01.758Z,5.97
2018-09-30T07:58:29.856Z,5.57
2018-09-30T08:00:57.949Z,4.10
2018-09-30T08:03:26.043Z,4.57
2018-09-30T08:05:54.134Z,5.27
2018-09-30T08:08:22.233Z,9.33
2018-09-30T08:10:50.531Z,5.27
2018-09-30T08:13:18.706Z,2.60
2018-09-30T08:15:47.279Z,4.60
2018-09-30T08:18:15.487Z,5.50
2018-09-30T08:20:43.590Z,4.60
2018-09-30T08:23:11.709Z,4.30
2018-09-30T08:25:39.816Z,3.90
2018-09-30T08:28:07.928Z,5.90
2018-09-30T08:30:36.091Z,4.33
2018-09-30T08:33:04.135Z,3.97
2018-09-30T08:35:32.240Z,7.43
2018-09-30T08:38:37.003Z,4.27
2018-09-30T08:41:07.321Z,4.67
2018-09-30T08:43:36.730Z,4.83
2018-09-30T08:46:04.915Z,5.67
2018-09-30T08:48:33.084Z,3.80
2018-09-30T08:51:01.212Z,3.30
2018-09-30T08:53:35.990Z,3.90
2018-09-30T08:56:04.118Z,5.20
2018-09-30T08:58:32.185Z,3.70
2018-09-30T09:01:00.297Z,5.00
2018-09-30T09:03:28.441Z,7.33
2018-09-30T09:05:56.537Z,6.87
2018-09-30T09:08:24.632Z,2.70
2018-09-30T09:10:52.724Z,3.50
2018-09-30T09:13:20.854Z,4.80
2018-09-30T09:15:49.049Z,6.10
2018-09-30T09:18:17.123Z,9.20
2018-09-30T09:20:45.225Z,4.03
2018-09-30T09:23:13.304Z,6.73
2018-09-30T09:25:41.742Z,4.97
2018-09-30T09:28:10.252Z,4.20
2018-09-30T09:30:38.313Z,5.23
2018-09-30T09:33:06.434Z,8.90
2018-09-30T09:35:34.475Z,5.73
2018-09-30T09:38:02.583Z,4.60
2018-09-30T09:40:30.947Z,4.00
2018-09-30T09:42:59.045Z,8.40
2018-09-30T09:45:27.178Z,3.50
2018-09-30T09:47:55.260Z,4.90
2018-09-30T09:50:23.390Z,4.40
2018-09-30T09:52:51.461Z,2.97
2018-09-30T09:55:19.572Z,7.43
2018-09-30T09:57:47.663Z,5.70
2018-09-30T10:00:21.197Z,4.30
2018-09-30T10:02:49.299Z,3.90
2018-09-30T10:05:17.445Z,4.57
2018-09-30T10:07:45.477Z,5.23
2018-09-30T10:10:13.564Z,7.70
2018-09-30T10:12:41.679Z,6.57
2018-09-30T10:15:09.781Z,6.17
2018-09-30T10:17:37.858Z,2.50
2018-09-30T10:20:05.940Z,3.77
2018-09-30T10:22:34.035Z,5.43
2018-09-30T10:25:02.133Z,4.73
2018-09-30T10:27:30.357Z,3.03
2018-09-30T10:29:58.662Z,6.07
2018-09-30T10:32:26.940Z,5.10
2018-09-30T10:34:55.237Z,3.33
2018-09-30T10:37:23.333Z,9.03
2018-09-30T10:39:51.441Z,4.40
2018-09-30T10:42:19.529Z,7.77
2018-09-30T10:44:47.647Z,5.00
2018-09-30T10:47:22.556Z,5.50
2018-09-30T10:49:50.687Z,4.03
2018-09-30T10:52:18.788Z,5.20
2018-09-30T10:54:46.880Z,3.97
2018-09-30T10:57:14.985Z,3.90
2018-09-30T10:59:43.069Z,4.67
2018-09-30T11:02:11.145Z,5.73
2018-09-30T11:04:39.252Z,4.77
2018-09-30T11:07:07.334Z,5.33
2018-09-30T11:09:35.450Z,4.53
2018-09-30T11:12:03.513Z,5.33
2018-09-30T11:14:31.592Z,5.17
2018-09-30T11:16:59.672Z,3.53
2018-09-30T11:19:27.761Z,4.97
2018-09-30T11:21:55.830Z,4.23
2018-09-30T11:24:23.962Z,4.73
2018-09-30T11:26:52.075Z,6.13
2018-09-30T11:29:20.871Z,6.80
2018-09-30T11:31:48.955Z,7.87
2018-09-30T11:34:17.020Z,5.07
2018-09-30T11:36:45.133Z,4.10
2018-09-30T11:39:13.439Z,8.23
2018-09-30T11:41:42.590Z,3.93
2018-09-30T11:44:11.071Z,5.30
2018-09-30T11:46:39.448Z,7.73
2018-09-30T11:49:07.728Z,6.50
2018-09-30T11:51:35.815Z,4.10
2018-09-30T11:54:03.925Z,5.80
2018-09-30T11:56:32.244Z,9.37
2018-09-30T11:59:00.440Z,5.13
2018-09-30T12:01:28.552Z,3.83
2018-09-30T12:03:56.649Z,6.83
2018-09-30T12:06:24.735Z,5.53
2018-09-30T12:08:53.116Z,8.10
2018-09-30T12:11:21.235Z,5.80
2018-09-30T12:13:49.350Z,7.93
2018-09-30T12:16:17.533Z,3.83
2018-09-30T12:18:45.691Z,5.53
2018-09-30T12:21:13.745Z,5.70
2018-09-30T12:23:41.939Z,5.57
2018-09-30T12:26:10.085Z,6.57
2018-09-30T12:28:38.163Z,6.30
2018-09-30T12:31:06.443Z,5.63
2018-09-30T12:33:34.537Z,5.73
2018-09-30T12:36:02.679Z,6.67
2018-09-30T12:38:30.762Z,6.77
2018-09-30T12:40:58.880Z,5.60
2018-09-30T12:43:26.991Z,5.43
2018-09-30T12:45:55.096Z,6.27
2018-09-30T12:48:23.222Z,6.10
2018-09-30T12:50:51.342Z,9.00
2018-09-30T12:53:19.550Z,5.07
2018-09-30T12:55:47.656Z,4.57
2018-09-30T12:58:15.868Z,5.40
2018-09-30T13:00:43.968Z,5.47
2018-09-30T13:03:12.070Z,4.83
2018-09-30T13:05:40.224Z,7.13
2018-09-30T13:08:08.290Z,4.17
2018-09-30T13:10:36.391Z,3.10
2018-09-30T13:13:04.495Z,6.03
2018-09-30T13:15:32.961Z,4.90
2018-09-30T13:18:01.152Z,5.90
2018-09-30T13:20:29.303Z,5.47
2018-09-30T13:22:57.394Z,8.57
2018-09-30T13:25:25.494Z,4.00
2018-09-30T13:27:53.671Z,4.40
2018-09-30T13:30:21.963Z,5.20
2018-09-30T13:32:50.085Z,4.87
2018-09-30T13:35:18.203Z,6.70
2018-09-30T13:37:46.301Z,7.10
2018-09-30T13:40:14.550Z,8.27
2018-09-30T13:42:42.858Z,6.80
2018-09-30T13:45:11.070Z,4.93
2018-09-30T13:47:39.205Z,10.47
2018-09-30T13:50:07.553Z,8.37
2018-09-30T13:52:35.688Z,9.20
2018-09-30T13:55:03.939Z,8.57
2018-09-30T13:57:32.030Z,6.80
2018-09-30T14:00:00.154Z,7.87
2018-09-30T14:02:28.351Z,6.30
2018-09-30T14:04:56.557Z,8.97
2018-09-30T14:07:24.754Z,6.00
2018-09-30T14:09:52.948Z,5.40
2018-09-30T14:12:21.061Z,7.00
2018-09-30T14:14:49.162Z,5.77
2018-09-30T14:17:17.374Z,7.27
2018-09-30T14:19:52.119Z,5.00
2018-09-30T14:22:20.225Z,7.10
2018-09-30T14:24:48.400Z,6.07
2018-09-30T14:27:16.660Z,7.57
2018-09-30T14:29:44.615Z,4.63
2018-09-30T14:32:12.707Z,6.90
2018-09-30T14:34:40.795Z,6.50
2018-09-30T14:37:08.909Z,7.23
2018-09-30T14:39:37.008Z,5.33
2018-09-30T14:42:05.142Z,7.40
2018-09-30T14:44:33.257Z,8.63
2018-09-30T14:47:01.354Z,6.33
2018-09-30T14:49:29.443Z,8.77
2018-09-30T14:51:57.567Z,9.97
2018-09-30T14:54:25.704Z,9.10
2018-09-30T14:57:00.363Z,5.53
2018-09-30T14:59:28.495Z,7.13
2018-09-30T15:01:56.609Z,8.87
2018-09-30T15:04:24.872Z,7.30
2018-09-30T15:06:53.243Z,8.30
2018-09-30T15:09:21.395Z,7.27
2018-09-30T15:11:49.504Z,11.47
2018-09-30T15:14:17.618Z,8.57
2018-09-30T15:16:45.711Z,6.37
2018-09-30T15:19:13.988Z,7.40
2018-09-30T15:21:42.207Z,5.37
2018-09-30T15:24:10.319Z,7.70
2018-09-30T15:26:38.448Z,10.33
2018-09-30T15:29:06.544Z,5.07
2018-09-30T15:31:34.652Z,7.13
2018-09-30T15:34:02.751Z,6.10
2018-09-30T15:36:30.887Z,5.20
2018-09-30T15:38:59.132Z,8.73
2018-09-30T15:41:27.268Z,8.27
2018-09-30T15:43:55.505Z,7.80
2018-09-30T15:46:23.611Z,5.60
2018-09-30T15:48:51.749Z,6.20
2018-09-30T15:51:19.852Z,6.93
2018-09-30T15:53:47.980Z,8.50
2018-09-30T15:56:16.088Z,7.33
2018-09-30T15:58:44.180Z,4.43
2018-09-30T16:01:12.278Z,8.47
2018-09-30T16:03:40.388Z,6.27
2018-09-30T16:06:08.500Z,6.73
2018-09-30T16:08:36.683Z,6.60
2018-09-30T16:11:04.794Z,11.53
2018-09-30T16:13:32.878Z,8.63
2018-09-30T16:16:00.964Z,5.20
2018-09-30T16:18:29.085Z,4.90
2018-09-30T16:20:57.189Z,8.77
2018-09-30T16:23:25.317Z,5.30
2018-09-30T16:25:53.604Z,6.87
2018-09-30T16:28:21.724Z,7.00
2018-09-30T16:30:49.810Z,7.50
2018-09-30T16:33:17.942Z,7.70
2018-09-30T16:35:46.030Z,11.67
2018-09-30T16:38:14.141Z,6.70
2018-09-30T16:40:42.211Z,6.87
2018-09-30T16:43:10.345Z,6.30
2018-09-30T16:45:38.392Z,6.70
2018-09-30T16:48:06.512Z,5.20
2018-09-30T16:50:34.586Z,7.17
2018-09-30T16:53:02.664Z,7.67
2018-09-30T16:55:30.751Z,9.77
2018-09-30T16:57:58.863Z,9.40
2018-09-30T17:00:26.940Z,9.13
2018-09-30T17:02:55.032Z,8.80
2018-09-30T17:05:23.114Z,7.70
2018-09-30T17:07:51.421Z,6.60
2018-09-30T17:10:19.514Z,6.37
2018-09-30T17:12:47.632Z,3.60
2018-09-30T17:15:15.716Z,5.60
2018-09-30T17:17:43.832Z,6.60
2018-09-30T17:20:11.943Z,7.73
2018-09-30T17:22:40.159Z,5.60
2018-09-30T17:25:08.281Z,9.93
2018-09-30T17:27:36.384Z,7.20
2018-09-30T17:30:04.558Z,7.40
2018-09-30T17:32:32.670Z,9.23
2018-09-30T17:35:00.794Z,6.80
2018-09-30T17:37:28.888Z,7.07
2018-09-30T17:39:56.993Z,7.80
2018-09-30T17:42:25.095Z,8.70
2018-09-30T17:44:53.206Z,9.13
2018-09-30T17:47:21.318Z,6.67
2018-09-30T17:49:49.423Z,10.90
2018-09-30T17:52:17.531Z,7.27
2018-09-30T17:54:45.630Z,8.50
2018-09-30T17:57:13.737Z,6.77
2018-09-30T17:59:41.853Z,9.07
2018-09-30T18:02:09.970Z,5.10
2018-09-30T18:04:38.085Z,9.40
2018-09-30T18:07:06.568Z,6.53
2018-09-30T18:09:34.681Z,11.57
2018-09-30T18:12:02.779Z,17.60
2018-09-30T18:14:30.922Z,17.10
2018-09-30T18:16:59.060Z,15.03
2018-09-30T18:19:27.166Z,7.53
2018-09-30T18:21:55.320Z,12.20
2018-09-30T18:24:23.435Z,9.87
2018-09-30T18:26:51.628Z,8.60
2018-09-30T18:29:19.724Z,7.47
2018-09-30T18:31:47.886Z,10.80
2018-09-30T18:34:16.003Z,7.93
2018-09-30T18:36:44.109Z,12.93
2018-09-30T18:39:12.895Z,10.17
2018-09-30T18:41:40.991Z,8.30
2018-09-30T18:44:09.338Z,12.37
2018-09-30T18:46:37.554Z,10.43
2018-09-30T18:49:05.604Z,7.17
2018-09-30T18:51:33.711Z,8.23
2018-09-30T18:54:08.714Z,10.17
2018-09-30T18:56:36.826Z,9.20
2018-09-30T18:59:04.951Z,12.67
2018-09-30T19:01:33.064Z,23.17
2018-09-30T19:04:01.171Z,16.93
2018-09-30T19:06:29.292Z,17.20
2018-09-30T19:08:57.400Z,18.37
2018-09-30T19:11:25.713Z,8.70
2018-09-30T19:13:53.830Z,8.00
2018-09-30T19:16:22.015Z,15.33
2018-09-30T19:18:50.140Z,11.87
2018-09-30T19:21:18.250Z,8.30
2018-09-30T19:23:46.366Z,15.30
2018-09-30T19:26:14.538Z,8.60
2018-09-30T19:28:42.650Z,12.43
2018-09-30T19:31:10.826Z,9.53
2018-09-30T19:33:38.943Z,14.10
2018-09-30T19:36:07.092Z,8.50
2018-09-30T19:38:35.218Z,10.20
2018-09-30T19:41:03.383Z,14.50
2018-09-30T19:43:31.547Z,10.73
2018-09-30T19:45:59.682Z,11.47
2018-09-30T19:48:27.911Z,12.90
2018-09-30T19:50:55.961Z,14.47
2018-09-30T19:53:24.058Z,9.47
2018-09-30T19:55:52.334Z,12.97
2018-09-30T19:58:20.446Z,13.93
2018-09-30T20:00:48.585Z,15.70
2018-09-30T20:03:17.003Z,14.50
2018-09-30T20:05:45.065Z,8.00
2018-09-30T20:08:13.181Z,13.00
2018-09-30T20:10:41.468Z,9.40
2018-09-30T20:13:09.609Z,7.87
2018-09-30T20:15:37.735Z,10.70
2018-09-30T20:18:05.830Z,10.57
2018-09-30T20:20:33.937Z,9.43
2018-09-30T20:23:02.049Z,11.13
2018-09-30T20:25:30.321Z,12.83
2018-09-30T20:27:58.445Z,10.43
2018-09-30T20:30:26.557Z,8.40
2018-09-30T20:32:54.805Z,17.33
2018-09-30T20:35:22.933Z,12.93
2018-09-30T20:37:51.032Z,11.90
2018-09-30T20:40:19.135Z,12.70
2018-09-30T20:42:47.237Z,10.80
2018-09-30T20:45:15.357Z,10.57
2018-09-30T20:47:43.456Z,10.67
2018-09-30T20:50:11.676Z,10.43
2018-09-30T20:52:39.794Z,15.40
2018-09-30T20:55:07.885Z,16.53
2018-09-30T20:57:35.976Z,10.60
2018-09-30T21:00:04.277Z,11.30
2018-09-30T21:02:32.401Z,12.77
2018-09-30T21:05:08.081Z,9.87
2018-09-30T21:07:36.114Z,9.30
2018-09-30T21:10:04.215Z,11.00
2018-09-30T21:12:32.305Z,10.83
2018-09-30T21:15:00.398Z,15.67
2018-09-30T21:17:28.477Z,12.87
2018-09-30T21:19:56.557Z,11.40
2018-09-30T21:22:24.679Z,9.70
2018-09-30T21:24:52.761Z,11.60
2018-09-30T21:27:20.827Z,10.07
2018-09-30T21:29:48.910Z,7.57
2018-09-30T21:32:16.988Z,11.97
2018-09-30T21:34:45.079Z,10.10
2018-09-30T21:37:13.135Z,8.33
2018-09-30T21:39:41.219Z,11.40
2018-09-30T21:42:09.304Z,9.43
2018-09-30T21:44:37.389Z,11.60
2018-09-30T21:47:05.818Z,10.80
2018-09-30T21:49:33.906Z,15.03
2018-09-30T21:52:01.993Z,11.47
2018-09-30T21:54:30.070Z,9.53
2018-09-30T21:56:58.154Z,14.43
2018-09-30T21:59:26.224Z,11.07
2018-09-30T22:01:54.312Z,13.57
2018-09-30T22:04:22.394Z,10.33
2018-09-30T22:06:50.478Z,9.67
2018-09-30T22:09:18.552Z,11.20
2018-09-30T22:11:46.631Z,11.57
2018-09-30T22:14:14.743Z,10.40
2018-09-30T22:16:42.825Z,11.37
2018-09-30T22:19:10.949Z,13.63
2018-09-30T22:21:39.029Z,10.90
2018-09-30T22:24:07.120Z,18.00
2018-09-30T22:26:35.215Z,14.77
2018-09-30T22:29:03.303Z,14.37
2018-09-30T22:31:31.418Z,17.50
2018-09-30T22:33:59.504Z,13.13
2018-09-30T22:36:27.607Z,12.27
2018-09-30T22:38:55.709Z,12.50
2018-09-30T22:41:23.814Z,15.00
2018-09-30T22:43:51.899Z,15.67
2018-09-30T22:46:19.996Z,15.97
2018-09-30T22:48:48.087Z,19.37
2018-09-30T22:51:16.198Z,13.70
2018-09-30T22:53:44.308Z,17.47
2018-09-30T22:56:12.415Z,14.50
2018-09-30T22:58:40.513Z,15.90
2018-09-30T23:01:08.615Z,14.50
2018-09-30T23:03:36.706Z,12.70
2018-09-30T23:06:04.813Z,15.40
2018-09-30T23:08:32.900Z,12.90
2018-09-30T23:11:01.001Z,14.13
2018-09-30T23:13:29.106Z,16.17
2018-09-30T23:15:57.192Z,15.37
2018-09-30T23:18:25.265Z,13.33
2018-09-30T23:20:53.738Z,17.00
2018-09-30T23:23:21.796Z,15.83
2018-09-30T23:25:49.880Z,16.83
2018-09-30T23:28:17.976Z,14.70
2018-09-30T23:30:46.076Z,18.40
2018-09-30T23:33:14.170Z,14.10
2018-09-30T23:35:42.453Z,17.10
2018-09-30T23:38:10.554Z,20.80
2018-09-30T23:40:38.635Z,17.27
2018-09-30T23:43:06.929Z,21.67
2018-09-30T23:45:35.022Z,22.13
2018-09-30T23:48:03.290Z,16.93
2018-09-30T23:50:31.376Z,16.50
2018-09-30T23:52:59.495Z,19.03
2018-09-30T23:55:27.586Z,16.70
2018-09-30T23:58:03.737Z,20.53
